Terminal Aerodrome Forecast
Issued by NWS Brownsville, TX

Home | Current Version | Previous Version | Text Only | Print | Product List | Glossary On
Versions: 1 2 3 4 5 6 7 8 9 10 11 12 13 14 15 16 17 18 19 20 21 22 23
000
FTUS44 KBRO 201800 AAB
TAFBRO
TAF AMD
KBRO 201840Z 2019/2118 16008KT P6SM VCTS SCT030CB BKN040 OVC090
      TEMPO 2019/2022 6SM +TSRA BKN025CB
     FM210000 12005KT P6SM VCSH SCT030 OVC250
      TEMPO 2100/2103 -SHRA BKN030
     FM210600 13003KT P6SM OVC250
     FM211200 02006KT P6SM BKN250=

USA.gov is the U.S. government's official web portal to all federal, state and local government web resources and services.